ID Time Temp Humidity Light PM2.5 PM10 Voltage Extra Firmware Position Fcnt Gateways Distance RSSI LSNR Radiosettings
2020-07-14 23:46:24 14.75°C 99.0625% 3.34V v4 51.5564 / 5.06744 869 - -112 -9.2 867.5Mhz, SF9BW125, 4/5CR
2020-07-14 23:15:21 15°C 98.875% 3.34V v4 51.5564 / 5.06744 867 - -104 -4.8 867.3Mhz, SF9BW125, 4/5CR
2020-07-14 22:44:17 15.4375°C 100.438% 3.34V v4 51.5564 / 5.06744 865 - -119 -4.8 867.1Mhz, SF9BW125, 4/5CR
2020-07-14 22:13:16 15.8125°C 100.875% 3.34V v4 51.5565 / 5.06757 863 - -115 0.8 867.9Mhz, SF9BW125, 4/5CR
2020-07-14 21:57:44 15.875°C 100.562% 3.34V v4 51.5565 / 5.06757 862 - -109 -13.5 868.5Mhz, SF9BW125, 4/5CR
2020-07-14 21:42:12 16°C 100.875% 3.34V v4 51.5565 / 5.06757 861 - -115 1 867.7Mhz, SF9BW125, 4/5CR
2020-07-14 21:11:08 16.1875°C 100.938% 3.34V v4 51.5565 / 5.06757 859 - -112 -5 867.5Mhz, SF9BW125, 4/5CR
2020-07-14 20:55:35 16.1875°C 100.562% 3.34V v4 51.5565 / 5.06757 858 - -113 -6.8 868.1Mhz, SF9BW125, 4/5CR
2020-07-14 20:40:03 16.25°C 100.188% 3.34V v4 51.5565 / 5.06757 857 - -117 -1.5 867.3Mhz, SF9BW125, 4/5CR
2020-07-14 20:08:59 16.4375°C 100.625% 3.34V v4 51.5565 / 5.06757 855 - -117 -1.2 867.1Mhz, SF9BW125, 4/5CR
2020-07-14 19:37:54 16.5625°C 100.812% 3.34V v4 51.5565 / 5.06757 853 - -117 1.5 867.9Mhz, SF9BW125, 4/5CR
2020-07-14 19:22:22 16.5625°C 100.688% 3.34V v4 51.5565 / 5.06757 852 - -119 -4.8 868.1Mhz, SF9BW125, 4/5CR
2020-07-14 19:06:49 16.5625°C 100.25% 3.34V v4 51.5565 / 5.06757 851 - -115 -0.2 867.7Mhz, SF9BW125, 4/5CR
2020-07-14 18:04:40 16.75°C 99.1875% 3.33V v4 51.5565 / 5.06757 847 - -117 -5.5 867.3Mhz, SF9BW125, 4/5CR
2020-07-14 17:49:07 17.1875°C 99.625% 3.34V v4 51.5565 / 5.06757 846 - -117 -5.5 868.1Mhz, SF9BW125, 4/5CR
2020-07-14 17:33:34 17.375°C 99.125% 3.34V v4 51.5565 / 5.06757 845 - -119 -2.8 867.1Mhz, SF9BW125, 4/5CR
2020-07-14 17:02:29 17.25°C 98.5625% 3.34V v4 51.5565 / 5.06757 843 - -120 -1.2 867.9Mhz, SF9BW125, 4/5CR
2020-07-14 16:31:24 16.875°C 98.25% 3.34V v4 51.5565 / 5.06757 841 - -118 -2 867.7Mhz, SF9BW125, 4/5CR
- -113 -11.25 867.7Mhz, SF9BW125, 4/5CR
2020-07-14 16:15:51 16.75°C 97.625% 3.34V v4 51.5565 / 5.06757 840 - -118 -5.8 868.1Mhz, SF9BW125, 4/5CR
2020-07-14 15:29:14 16.6875°C 95.625% 3.34V v4 51.5565 / 5.06757 837 - -115 -4 867.3Mhz, SF9BW125, 4/5CR
2020-07-14 14:58:09 17.0625°C 96.5% 3.34V v4 51.5565 / 5.06757 835 - -119 -4.8 867.1Mhz, SF9BW125, 4/5CR
2020-07-14 14:27:04 16.5625°C 96.4375% 3.34V v4 51.5565 / 5.06757 833 - -119 -2.5 867.9Mhz, SF9BW125, 4/5CR
2020-07-14 13:56:00 16.25°C 96.125% 3.34V v4 51.5565 / 5.06757 831 - -119 -4.2 867.7Mhz, SF9BW125, 4/5CR
- -113 -13.25 867.7Mhz, SF9BW125, 4/5CR
2020-07-14 12:53:51 16.75°C 93.5625% 3.34V v4 51.5565 / 5.06757 827 - -115 -4.5 867.3Mhz, SF9BW125, 4/5CR
2020-07-14 12:22:46 17.375°C 91.0625% 3.33V v4 51.5565 / 5.06757 825 - -119 -2.5 867.1Mhz, SF9BW125, 4/5CR
2020-07-14 11:51:40 18.625°C 86.375% 3.34V v4 51.5565 / 5.06757 823 - -117 -1.8 867.9Mhz, SF9BW125, 4/5CR
2020-07-14 11:36:06 18.5625°C 83.1875% 3.34V v4 51.5565 / 5.06757 822 - -112 -6.2 868.1Mhz, SF9BW125, 4/5CR
2020-07-14 11:20:33 18.1875°C 84.1875% 3.34V v4 51.5565 / 5.06757 821 - -115 1.5 867.7Mhz, SF9BW125, 4/5CR
2020-07-14 10:02:48 17.6875°C 86.4375% 3.34V v4 51.5565 / 5.06757 816 - -114 -2.2 868.1Mhz, SF9BW125, 4/5CR
2020-07-14 09:47:15 17.5°C 88.125% 3.34V v4 51.5565 / 5.06757 815 - -119 -2 867.1Mhz, SF9BW125, 4/5CR
2020-07-14 09:31:42 17.5625°C 86.75% 3.34V v4 51.5565 / 5.06757 814 - -103 -12.2 868.5Mhz, SF9BW125, 4/5CR
2020-07-14 09:16:10 17.25°C 86.8125% 3.34V v4 51.5565 / 5.06757 813 - -113 2.2 867.9Mhz, SF9BW125, 4/5CR
- -113 -11.75 867.9Mhz, SF9BW125, 4/5CR
2020-07-14 09:00:37 16.8125°C 88.6875% 3.34V v4 51.5565 / 5.06757 812 - -109 -9.5 868.3Mhz, SF9BW125, 4/5CR
2020-07-14 08:45:05 16.5625°C 88.5625% 3.34V v4 51.5565 / 5.06757 811 - -113 4 867.7Mhz, SF9BW125, 4/5CR
2020-07-14 08:29:33 16.25°C 87.625% 3.34V v4 51.5565 / 5.06757 810 - -117 -2 868.1Mhz, SF9BW125, 4/5CR
2020-07-14 08:14:00 15.9375°C 88.75% 3.33V v4 51.5565 / 5.06757 809 - -109 -8.5 867.5Mhz, SF9BW125, 4/5CR
2020-07-14 07:58:28 15.75°C 88.9375% 3.34V v4 51.5565 / 5.06757 808 - -106 -13.25 868.5Mhz, SF9BW125, 4/5CR
2020-07-14 07:42:56 15.5625°C 89.375% 3.34V v4 51.5565 / 5.06757 807 - -115 -2.5 867.3Mhz, SF9BW125, 4/5CR
2020-07-14 07:11:53 15.375°C 90.125% 3.34V v4 51.5565 / 5.06757 805 - -115 -1.2 867.1Mhz, SF9BW125, 4/5CR
2020-07-14 06:56:21 15.25°C 89.8125% 3.34V v4 51.5565 / 5.06757 804 - -117 -2.5 868.1Mhz, SF9BW125, 4/5CR
2020-07-14 06:40:49 15.125°C 88.4375% 3.34V v4 51.5565 / 5.06757 803 - -114 1.8 867.9Mhz, SF9BW125, 4/5CR
2020-07-14 06:09:46 14.875°C 89.4375% 3.34V v4 51.5565 / 5.06757 801 - -113 2.5 867.7Mhz, SF9BW125, 4/5CR
2020-07-14 05:54:15 14.8125°C 89% 3.34V v4 51.5565 / 5.06757 800 - -115 -9.5 868.3Mhz, SF9BW125, 4/5CR
2020-07-14 05:38:43 14.75°C 88.8125% 3.34V v4 51.5565 / 5.06757 799 - -113 -5.2 867.5Mhz, SF9BW125, 4/5CR
2020-07-14 05:07:40 14.6875°C 88.375% 3.34V v4 51.5565 / 5.06757 797 - -114 -0.8 867.3Mhz, SF9BW125, 4/5CR
2020-07-14 04:36:37 14.5°C 89.1875% 3.34V v4 51.5565 / 5.06757 795 - -117 -1 867.1Mhz, SF9BW125, 4/5CR
2020-07-14 04:05:35 14.375°C 88.375% 3.34V v4 51.5565 / 5.06757 793 - -117 3 867.9Mhz, SF9BW125, 4/5CR
2020-07-14 03:50:03 14.5°C 88% 3.34V v4 51.5565 / 5.06757 792 - -110 -12.75 868.1Mhz, SF9BW125, 4/5CR
2020-07-14 03:34:32 14.8125°C 87.875% 3.34V v4 51.5565 / 5.06757 791 - -115 2.8 867.7Mhz, SF9BW125, 4/5CR
2020-07-14 03:03:29 14.5625°C 88.1875% 3.34V v4 51.5565 / 5.06757 789 - -111 -4.2 867.5Mhz, SF9BW125, 4/5CR

Message count: 50
Node count: 1

Messages per node

Number of messages in list aboveNodes
50

Statistics per gateway

GatewayNumber of messagesNumber of nodesNodes
471
61

Filter by dataset